Current Conditions
Partly Cloudy
Conditions



Pressure
990.92 (hPa) - 29.26 (inHG)
Visibility

0.0 (km) - 0.0 (miles)
   Temperature
2  °C
36°F
0  °C
Dewpoint
87  %
 Humidity
   Wind Speed
0  km/h
0  kts
0  mph
0  m/s
   Wind Direction
Calm
Due North
   Airport Data
LSMM
Location Meiringen Airport 6 km (3.73 mi)
Metar :LSMM 040150Z AUTO 00000KT 9999NDV FEW130 02/M00 Q0991 RMK
Fri 4th December 03:50 am
   Raw Metar Info
Raw METAR is the most common format in the world for the transmission of observational weather data. It is highly standardized through the International Civil Aviation Organization (ICAO), which allows it to be understood throughout most of the world.
   API Info
Data Provided by
https://www.checkwx.com/weather/LSMM
   © Info
CSS/SVG/PHP scripts were developed by weather34.com for use in the weather34 template © 2015-2020

Guide Info provided by Metar-Wikipedia